Route Details

Aircraft Information
Group: Euro Hub to Hub
Types: MD11, B763, A30F, B738
Route Data
Distance: 576nm
Duration: 1h 44m
Origin METAR: ENGM 260050Z 35004KT CAVOK 14/12 Q1022
Dest. METAR: EDDK 260120Z AUTO VRB01KT CAVOK 11/11 Q1017 NOSIG
Freight Data
(for May 26, 2024)
Load Factor:
33%
Manifested Cargo: 43,624lbs
Financial History
Total Freight: 942,864lbs
Average Load: 0lbs/flt
Fuel Used: 285,602lbs
Avg. Fuel Used: 0lbs/flt
Fuel Expense: $115,906
Avg. Fuel Expense: $0
Avg. Fuel Cost: $0/lbs
Total Gross Income: $2,125,092
Pilot Pay: $3,645
Total Expenses: $410,540
Total Revenue: $1,589,089
Average Revenue: $0

Capitol Logistics 595




ENGM
Oslo Airport Gardermoen
Oslo, NO
EDDK
Cologne Bonn Airport
Cologne, DE

Activity Log

Date Flight Route Aircraft Duration
10/23/2023 CPX595 VIPA1A VIPPA P615 ALS DCT ALASA M852 EKERN N125 ELSOB N850 LARBU Z189 RUNER T858 KOPAG KOPA14 B738 1h 48m
08/12/2023 CPX595 VIPA1C VIPPA P615 ALS M852 POVEL Q201 PODER Z189 RUNER T858 KOPAG KOPA14 B738 2h 02m
07/30/2023 CPX595 VIPA6D VIPPA P615 ALS M852 ALASA DCT LARBU Z189 RUNER T858 KOPAG KOPA32 MD11 1h 42m
06/23/2023 CPX595 VIPA1A VIPPA P615 ALS M852 POVEL Q201 PODER Z189 RUNER T858 KOPAG KOPA32 A30F 1h 51m
04/02/2023 CPX595 VIPA1A VIPPA P615 ALS M852 POVEL Q201 PODER Z189 RUNER T858 KOPAG KOPA06 B738 1h 56m
03/15/2023 CPX595 Not Available B738 1h 56m
12/22/2022 CPX595 VIPPA1A VIPPA P615 ALS M852 ALASA/N0461F350 M852 POVEL/N0458F360 Q201 PODER Z189 RUNER T858 KOPAG KOPAG14 A31F 1h 51m
10/10/2022 CPX595 VIPA1C VIPPA P615 ALS M852 POVEL Q201 PODER Z189 RUNER T858 KOPAG KOPA14 A30F 2h 00m
09/27/2022 CPX595 VIPPA ELKOP P601 BAVTA N873 JUIST P174 EEL N872 NIK M624 REMBA UL607 SPI Y862 KENUM T862 DEPOK B738 2h 04m
07/28/2022 CPX595 VIPA1C VIPPA P615 AAL DCT LOKSA DCT ALASA M852 EKERN N125 ELSOB N850 LARBU Z189 RUNER T858 KOPAG KOPA14 A30F 1h 40m
07/27/2022 CPX595 VIPA1A VIPPA P615 ALS M852 EKERN N125 ELSOB N850 LARBU Z189 RUNER DCT KOPAG KOPA1N A31F 1h 44m
05/25/2022 CPX921 VIPA6D VIPPA P615 ALS M852 EKERN N125 ELSOB N850 LARBU Z189 RUNER DCT KOPAG KOPA24 A30F 2h 16m
12/10/2021 CPX911 VIPPA P615 ALS M852 HLZ P12 ESADU T858 KOPAG A30F 1h 58m
12/08/2021 CPX911 VIPA1A VIPPA P615 ALS M852 HLZ P12 ESADU T858 KOPAG KOPA14 A31F 1h 56m
10/04/2021 CPX911 VIPA6D VIPPA P615 ALS M852 HLZ P12 ESADU T858 KOPAG KOPA14 A30F 2h 12m